地図

経路データ

SID SEASON NUMBER BASIN SUBBASIN NAME ISO_TIME NATURE LAT LON WMO_WIND WMO_PRES WMO_AGENCY TRACK_TYPE DIST2LAND LANDFALL IFLAG USA_AGENCY USA_ATCF_ID USA_LAT USA_LON USA_RECORD USA_STATUS USA_WIND USA_PRES USA_SSHS USA_R34_NE USA_R34_SE USA_R34_SW USA_R34_NW USA_R50_NE USA_R50_SE USA_R50_SW USA_R50_NW USA_R64_NE USA_R64_SE USA_R64_SW USA_R64_NW USA_POCI USA_ROCI USA_RMW USA_EYE TOKYO_LAT TOKYO_LON TOKYO_GRADE TOKYO_WIND TOKYO_PRES TOKYO_R50_DIR TOKYO_R50_LONG TOKYO_R50_SHORT TOKYO_R30_DIR TOKYO_R30_LONG TOKYO_R30_SHORT TOKYO_LAND CMA_LAT CMA_LON CMA_CAT CMA_WIND CMA_PRES HKO_LAT HKO_LON HKO_CAT HKO_WIND HKO_PRES NEWDELHI_LAT NEWDELHI_LON NEWDELHI_GRADE NEWDELHI_WIND NEWDELHI_PRES NEWDELHI_CI NEWDELHI_DP NEWDELHI_POCI REUNION_LAT REUNION_LON REUNION_TYPE REUNION_WIND REUNION_PRES REUNION_TNUM REUNION_CI REUNION_RMW REUNION_R34_NE REUNION_R34_SE REUNION_R34_SW REUNION_R34_NW REUNION_R50_NE REUNION_R50_SE REUNION_R50_SW REUNION_R50_NW REUNION_R64_NE REUNION_R64_SE REUNION_R64_SW REUNION_R64_NW BOM_LAT BOM_LON BOM_TYPE BOM_WIND BOM_PRES BOM_TNUM BOM_CI BOM_RMW BOM_R34_NE BOM_R34_SE BOM_R34_SW BOM_R34_NW BOM_R50_NE BOM_R50_SE BOM_R50_SW BOM_R50_NW BOM_R64_NE BOM_R64_SE BOM_R64_SW BOM_R64_NW BOM_ROCI BOM_POCI BOM_EYE BOM_POS_METHOD BOM_PRES_METHOD NADI_LAT NADI_LON NADI_CAT NADI_WIND NADI_PRES WELLINGTON_LAT WELLINGTON_LON WELLINGTON_WIND WELLINGTON_PRES DS824_LAT DS824_LON DS824_STAGE DS824_WIND DS824_PRES TD9636_LAT TD9636_LON TD9636_STAGE TD9636_WIND TD9636_PRES TD9635_LAT TD9635_LON TD9635_WIND TD9635_PRES TD9635_ROCI NEUMANN_LAT NEUMANN_LON NEUMANN_CLASS NEUMANN_WIND NEUMANN_PRES MLC_LAT MLC_LON MLC_CLASS MLC_WIND MLC_PRES USA_GUST BOM_GUST BOM_GUST_PER REUNION_GUST REUNION_GUST_PER USA_SEAHGT USA_SEARAD_NE USA_SEARAD_SE USA_SEARAD_SW USA_SEARAD_NW STORM_SPEED STORM_DIR
1928298N13150 1928 64 WP MM NOT_NAMED 1928-10-24 10:00:00 NR 13.4000 149.800 main 1756 1756 __________O___ -1 13.4000 149.800 7 5 315
1928298N13150 1928 64 WP MM NOT_NAMED 1928-10-24 12:00:00 NR 13.5211 149.674 main 1766 1766 __________P___ -1 13.5211 149.674 7 5 314
1928298N13150 1928 64 WP MM NOT_NAMED 1928-10-24 15:00:00 NR 13.7009 149.483 main 1785 1783 __________P___ -1 13.7009 149.483 7 5 313
1928298N13150 1928 64 WP MM NOT_NAMED 1928-10-24 18:00:00 NR 13.8766 149.284 main 1804 1803 __________P___ -1 13.8766 149.284 7 5 311
1928298N13150 1928 64 WP MM NOT_NAMED 1928-10-24 21:00:00 NR 14.0456 149.074 main 1813 1823 __________P___ -1 14.0456 149.074 7 5 309
1928298N13150 1928 64 WP MM NOT_NAMED 1928-10-24 22:00:00 NR 14.1000 149.000 main 1823 1822 __________O___ -1 14.1000 149.000 7 5 306
1928298N13150 1928 64 WP MM NOT_NAMED 1928-10-25 00:00:00 NR 14.2057 148.847 main 1832 1832 __________P___ -1 14.2057 148.847 7 6 304
1928298N13150 1928 64 WP MM NOT_NAMED 1928-10-25 03:00:00 NR 14.3579 148.606 main 1853 1852 __________P___ -1 14.3579 148.606 7 6 302
1928298N13150 1928 64 WP MM NOT_NAMED 1928-10-25 06:00:00 NR 14.5054 148.352 main 1862 1862 __________P___ -1 14.5054 148.352 7 6 300
1928298N13150 1928 64 WP MM NOT_NAMED 1928-10-25 09:00:00 NR 14.6512 148.089 main 1883 1883 __________P___ -1 14.6512 148.089 7 6 300
1928298N13150 1928 64 WP MM NOT_NAMED 1928-10-25 10:00:00 NR 14.7000 148.000 main 1883 1882 __________O___ -1 14.7000 148.000 7 6 300
1928298N13150 1928 64 WP MM NOT_NAMED 1928-10-25 12:00:00 NR 14.8053 147.815 main 1893 1893 __________P___ -1 14.8053 147.815 7 6 300
1928298N13150 1928 64 WP MM NOT_NAMED 1928-10-25 15:00:00 NR 14.9633 147.530 main 1915 1915 __________P___ -1 14.9633 147.530 7 6 300
1928298N13150 1928 64 WP MM NOT_NAMED 1928-10-25 18:00:00 NR 15.1159 147.248 main 1926 1926 __________P___ -1 15.1159 147.248 7 6 299
1928298N13150 1928 64 WP MM NOT_NAMED 1928-10-25 21:00:00 NR 15.2567 146.983 main 1949 1949 __________P___ -1 15.2567 146.983 7 6 299
1928298N13150 1928 64 WP MM NOT_NAMED 1928-10-25 22:00:00 NR 15.3000 146.900 main 1949 1949 __________O___ -1 15.3000 146.900 7 5 298
1928298N13150 1928 64 WP MM NOT_NAMED 1928-10-26 00:00:00 NR 15.3753 146.752 main 1960 1960 __________P___ -1 15.3753 146.752 7 5 297
1928298N13150 1928 64 WP MM NOT_NAMED 1928-10-26 03:00:00 NR 15.4757 146.549 main 1971 1971 __________P___ -1 15.4757 146.549 7 4 297
1928298N13150 1928 64 WP MM NOT_NAMED 1928-10-26 06:00:00 NR 15.5694 146.358 main 1982 1983 __________P___ -1 15.5694 146.358 7 4 297
1928298N13150 1928 64 WP MM NOT_NAMED 1928-10-26 09:00:00 NR 15.6657 146.166 main 1994 1994 __________P___ -1 15.6657 146.166 7 4 298
1928298N13150 1928 64 WP MM NOT_NAMED 1928-10-26 10:00:00 NR 15.7000 146.100 main 1994 1994 __________O___ -1 15.7000 146.100 7 4 301
1928298N13150 1928 64 WP MM NOT_NAMED 1928-10-26 12:00:00 NR 15.7747 145.979 main 2006 2006 __________P___ -1 15.7747 145.979 7 4 303
1928298N13150 1928 64 WP MM NOT_NAMED 1928-10-26 15:00:00 NR 15.8932 145.792 main 2018 2018 __________P___ -1 15.8932 145.792 7 5 302
1928298N13150 1928 64 WP MM NOT_NAMED 1928-10-26 18:00:00 NR 16.0194 145.576 main 2030 2030 __________P___ -1 16.0194 145.576 7 5 299
1928298N13150 1928 64 WP MM NOT_NAMED 1928-10-26 21:00:00 NR 16.1535 145.306 main 2054 2054 __________P___ -1 16.1535 145.306 7 6 297
1928298N13150 1928 64 WP MM NOT_NAMED 1928-10-26 22:00:00 NR 16.2000 145.200 main 2055 2055 __________O___ -1 16.2000 145.200 7 7 293
1928298N13150 1928 64 WP MM NOT_NAMED 1928-10-27 00:00:00 NR 16.2971 144.949 main 2069 2069 __________P___ -1 16.2971 144.949 7 8 291
1928298N13150 1928 64 WP MM NOT_NAMED 1928-10-27 03:00:00 NR 16.4491 144.515 main 2085 2048 __________P___ -1 16.4491 144.515 7 9 289
1928298N13150 1928 64 WP MM NOT_NAMED 1928-10-27 06:00:00 NR 16.6028 144.041 main 2048 2011 __________P___ -1 16.6028 144.041 7 10 288
1928298N13150 1928 64 WP MM NOT_NAMED 1928-10-27 09:00:00 NR 16.7522 143.558 main 2011 1994 __________P___ -1 16.7522 143.558 7 10 288
1928298N13150 1928 64 WP MM NOT_NAMED 1928-10-27 10:00:00 NR 16.8000 143.400 main 1994 1965 __________O___ -1 16.8000 143.400 7 8 288
1928298N13150 1928 64 WP MM NOT_NAMED 1928-10-27 12:00:00 NR 16.8831 143.137 main 1965 1926 __________P___ -1 16.8831 143.137 7 8 288
1928298N13150 1928 64 WP MM NOT_NAMED 1928-10-27 15:00:00 NR 17.0016 142.749 main 1926 1888 __________P___ -1 17.0016 142.749 7 8 287
1928298N13150 1928 64 WP MM NOT_NAMED 1928-10-27 18:00:00 NR 17.1215 142.339 main 1888 1850 __________P___ -1 17.1215 142.339 7 9 287
1928298N13150 1928 64 WP MM NOT_NAMED 1928-10-27 21:00:00 NR 17.2523 141.874 main 1853 1832 __________P___ -1 17.2523 141.874 7 10 286
1928298N13150 1928 64 WP MM NOT_NAMED 1928-10-27 22:00:00 NR 17.3000 141.700 main 1832 1795 __________O___ -1 17.3000 141.700 7 12 283
1928298N13150 1928 64 WP MM NOT_NAMED 1928-10-28 00:00:00 NR 17.3798 141.283 main 1795 1727 __________P___ -1 17.3798 141.283 7 13 281
1928298N13150 1928 64 WP MM NOT_NAMED 1928-10-28 03:00:00 NR 17.5112 140.594 main 1727 1664 __________P___ -1 17.5112 140.594 7 14 283
1928298N13150 1928 64 WP MM NOT_NAMED 1928-10-28 06:00:00 NR 17.6782 139.882 main 1664 1603 __________P___ -1 17.6782 139.882 7 14 287
1928298N13150 1928 64 WP MM NOT_NAMED 1928-10-28 09:00:00 NR 17.9061 139.207 main 1603 1587 __________P___ -1 17.9061 139.207 7 14 291
1928298N13150 1928 64 WP MM NOT_NAMED 1928-10-28 10:00:00 NR 18.0000 139.000 main 1587 1557 __________O___ -1 18.0000 139.000 7 13 298
1928298N13150 1928 64 WP MM NOT_NAMED 1928-10-28 12:00:00 NR 18.2154 138.605 main 1557 1528 __________P___ -1 18.2154 138.605 7 13 304
1928298N13150 1928 64 WP MM NOT_NAMED 1928-10-28 15:00:00 NR 18.6018 138.067 main 1528 1502 __________P___ -1 18.6018 138.067 7 13 312
1928298N13150 1928 64 WP MM NOT_NAMED 1928-10-28 18:00:00 NR 19.0472 137.618 main 1502 1445 __________P___ -1 19.0472 137.618 7 12 321
1928298N13150 1928 64 WP MM NOT_NAMED 1928-10-28 21:00:00 NR 19.5326 137.282 main 1445 1420 __________P___ -1 19.5326 137.282 7 11 329
1928298N13150 1928 64 WP MM NOT_NAMED 1928-10-28 22:00:00 NR 19.7000 137.200 main 1420 1385 __________O___ -1 19.7000 137.200 7 11 336
1928298N13150 1928 64 WP MM NOT_NAMED 1928-10-29 00:00:00 NR 20.0187 137.055 main 1385 1326 __________P___ -1 20.0187 137.055 7 10 344
1928298N13150 1928 64 WP MM NOT_NAMED 1928-10-29 03:00:00 NR 20.5222 136.943 main 1326 1266 __________P___ -1 20.5222 136.943 7 10 354
1928298N13150 1928 64 WP MM NOT_NAMED 1928-10-29 06:00:00 NR 21.0537 136.947 main 1266 1222 __________P___ -1 21.0537 136.947 7 11 5
1928298N13150 1928 64 WP MM NOT_NAMED 1928-10-29 09:00:00 NR 21.6098 137.047 main 1222 1208 __________P___ -1 21.6098 137.047 7 11 11
1928298N13150 1928 64 WP MM NOT_NAMED 1928-10-29 10:00:00 NR 21.8000 137.100 main 1208 1175 __________O___ -1 21.8000 137.100 7 13 15
1928298N13150 1928 64 WP MM NOT_NAMED 1928-10-29 12:00:00 NR 22.2277 137.229 main 1175 1123 __________P___ -1 22.2277 137.229 7 14 19
1928298N13150 1928 64 WP MM NOT_NAMED 1928-10-29 15:00:00 NR 22.8892 137.499 main 1123 1083 __________P___ -1 22.8892 137.499 7 14 23
1928298N13150 1928 64 WP MM NOT_NAMED 1928-10-29 18:00:00 NR 23.5187 137.812 main 1083 1047 __________P___ -1 23.5187 137.812 7 13 26
1928298N13150 1928 64 WP MM NOT_NAMED 1928-10-29 21:00:00 NR 24.0535 138.113 main 1047 1044 __________P___ -1 24.0535 138.113 7 12 28
1928298N13150 1928 64 WP MM NOT_NAMED 1928-10-29 22:00:00 NR 24.2000 138.200 main 1044 1033 __________O___ -1 24.2000 138.200 7 8 27
1928298N13150 1928 64 WP MM NOT_NAMED 1928-10-30 00:00:00 NR 24.4134 138.314 main 1033 1014 __________P___ -1 24.4134 138.314 7 6 28
1928298N13150 1928 64 WP MM NOT_NAMED 1928-10-30 03:00:00 NR 24.6265 138.445 main 1014 994 __________P___ -1 24.6265 138.445 7 4 32
1928298N13150 1928 64 WP MM NOT_NAMED 1928-10-30 06:00:00 NR 24.7586 138.552 main 997 986 __________P___ -1 24.7586 138.552 7 3 40
1928298N13150 1928 64 WP MM NOT_NAMED 1928-10-30 09:00:00 NR 24.8625 138.659 main 989 989 __________P___ -1 24.8625 138.659 7 3 44
1928298N13150 1928 64 WP MM NOT_NAMED 1928-10-30 10:00:00 NR 24.9000 138.700 main 989 978 __________O___ -1 24.9000 138.700 7 4 41
1928298N13150 1928 64 WP MM NOT_NAMED 1928-10-30 12:00:00 NR 25.0087 138.795 main 981 963 __________P___ -1 25.0087 138.795 7 4 40
1928298N13150 1928 64 WP MM NOT_NAMED 1928-10-30 15:00:00 NR 25.1716 138.950 main 963 955 __________P___ -1 25.1716 138.950 7 4 42
1928298N13150 1928 64 WP MM NOT_NAMED 1928-10-30 18:00:00 NR 25.3427 139.125 main 958 940 __________P___ -1 25.3427 139.125 7 5 43
1928298N13150 1928 64 WP MM NOT_NAMED 1928-10-30 21:00:00 NR 25.5315 139.326 main 944 937 __________P___ -1 25.5315 139.326 7 5 44
1928298N13150 1928 64 WP MM NOT_NAMED 1928-10-30 22:00:00 NR 25.6000 139.400 main 937 930 __________O___ -1 25.6000 139.400 3 6 43
1928298N13150 1928 64 WP MM NOT_NAMED 1928-10-31 00:00:00 NR 25.7495 139.555 main 934 911 __________P___ -1 25.7495 139.555 3 7 44
1928298N13150 1928 64 WP MM NOT_NAMED 1928-10-31 03:00:00 NR 25.9927 139.813 main 911 893 __________P___ -1 25.9927 139.813 3 7 44
1928298N13150 1928 64 WP MM NOT_NAMED 1928-10-31 06:00:00 NR 26.2503 140.096 main 893 883 __________P___ -1 26.2503 140.096 3 7 45
1928298N13150 1928 64 WP MM NOT_NAMED 1928-10-31 09:00:00 NR 26.5129 140.397 main 887 878 __________P___ -1 26.5129 140.397 3 8 46
1928298N13150 1928 64 WP MM NOT_NAMED 1928-10-31 10:00:00 NR 26.6000 140.500 main 882 873 __________O___ -1 26.6000 140.500 4 8 47
1928298N13150 1928 64 WP MM NOT_NAMED 1928-10-31 12:00:00 NR 26.7719 140.710 main 873 865 __________P___ -1 26.7719 140.710 4 8 48
1928298N13150 1928 64 WP MM NOT_NAMED 1928-10-31 15:00:00 NR 27.0249 141.031 main 870 848 __________P___ -1 27.0249 141.031 4 8 49
1928298N13150 1928 64 WP MM NOT_NAMED 1928-10-31 18:00:00 NR 27.2732 141.358 main 851 835 __________P___ -1 27.2732 141.358 4 8 50
1928298N13150 1928 64 WP MM NOT_NAMED 1928-10-31 21:00:00 NR 27.5186 141.689 main 838 828 __________P___ -1 27.5186 141.689 4 8 50
1928298N13150 1928 64 WP MM NOT_NAMED 1928-10-31 22:00:00 NR 27.6000 141.800 main 831 __________O___ -1 27.6000 141.800 4 8 49

デジタル台風データ・検索

IBTrACS Databaseについて

本データベースは、米国NOAAが公開する1842年以降の世界の熱帯低気圧のベストトラックデータアーカイブInternational Best Track Archive for Climate Stewardship (IBTrACS)を、ウェブで閲覧しやすい形式に変換したものです。

最終更新日:2021-10-08